createdAt,value
2023-01-15T00:02:18.463Z,35.74
2023-01-15T00:04:46.326Z,35.34
2023-01-15T00:07:14.037Z,35.88
2023-01-15T00:09:41.849Z,35.59
2023-01-15T00:12:09.599Z,35.49
2023-01-15T00:14:37.339Z,35.66
2023-01-15T00:17:05.106Z,35.80
2023-01-15T00:19:32.936Z,35.73
2023-01-15T00:22:09.619Z,35.76
2023-01-15T00:25:06.503Z,35.86
2023-01-15T00:27:40.141Z,36.03
2023-01-15T00:30:08.069Z,35.97
2023-01-15T00:32:35.810Z,36.05
2023-01-15T00:35:03.608Z,36.29
2023-01-15T00:37:31.359Z,35.83
2023-01-15T00:39:59.137Z,35.61
2023-01-15T00:42:26.970Z,35.77
2023-01-15T00:44:55.695Z,35.75
2023-01-15T00:47:23.519Z,36.36
2023-01-15T00:49:51.731Z,35.69
2023-01-15T00:52:19.608Z,35.56
2023-01-15T00:54:48.331Z,36.02
2023-01-15T00:57:16.141Z,36.13
2023-01-15T00:59:43.878Z,35.57
2023-01-15T01:02:11.775Z,35.71
2023-01-15T01:04:39.556Z,35.66
2023-01-15T01:07:07.300Z,35.79
2023-01-15T01:09:35.174Z,35.70
2023-01-15T01:12:02.874Z,35.81
2023-01-15T01:14:30.655Z,36.04
2023-01-15T01:16:58.342Z,35.70
2023-01-15T01:19:26.129Z,35.93
2023-01-15T01:21:53.940Z,35.90
2023-01-15T01:24:21.661Z,35.71
2023-01-15T01:26:49.398Z,35.88
2023-01-15T01:29:17.199Z,36.36
2023-01-15T01:31:45.093Z,35.88
2023-01-15T01:34:12.874Z,36.02
2023-01-15T01:36:40.749Z,36.13
2023-01-15T01:39:08.617Z,36.05
2023-01-15T01:41:36.379Z,36.09
2023-01-15T01:44:04.117Z,35.77
2023-01-15T01:46:31.900Z,35.87
2023-01-15T01:48:59.632Z,36.13
2023-01-15T01:51:27.395Z,35.97
2023-01-15T01:53:55.183Z,36.53
2023-01-15T01:56:23.344Z,36.17
2023-01-15T01:58:51.067Z,36.38
2023-01-15T02:39:10.882Z,36.16
2023-01-15T02:41:38.613Z,36.42
2023-01-15T02:44:06.341Z,36.37
2023-01-15T02:46:34.130Z,36.54
2023-01-15T02:49:01.889Z,36.44
2023-01-15T02:51:29.601Z,36.19
2023-01-15T02:53:58.696Z,36.18
2023-01-15T02:56:26.441Z,36.10
2023-01-15T02:58:54.272Z,36.53
2023-01-15T03:01:22.175Z,36.17
2023-01-15T03:03:49.996Z,36.30
2023-01-15T03:06:17.749Z,36.18
2023-01-15T03:08:45.533Z,36.00
2023-01-15T03:11:13.282Z,36.29
2023-01-15T03:13:41.035Z,36.43
2023-01-15T03:16:26.217Z,36.30
2023-01-15T03:18:54.059Z,36.40
2023-01-15T03:21:21.832Z,36.19
2023-01-15T03:23:49.588Z,36.35
2023-01-15T03:26:17.407Z,36.48
2023-01-15T03:28:45.152Z,36.41
2023-01-15T03:31:13.018Z,36.27
2023-01-15T03:33:40.861Z,36.30
2023-01-15T03:36:08.600Z,36.26
2023-01-15T03:38:36.859Z,36.34
2023-01-15T03:41:04.600Z,36.41
2023-01-15T03:43:44.568Z,36.52
2023-01-15T03:46:12.331Z,36.10
2023-01-15T03:48:40.160Z,36.60
2023-01-15T03:51:07.952Z,36.35
2023-01-15T03:53:35.663Z,36.68
2023-01-15T03:56:03.421Z,36.30
2023-01-15T03:58:31.182Z,36.13
2023-01-15T04:00:59.877Z,36.59
2023-01-15T04:03:27.752Z,36.39
2023-01-15T04:05:55.493Z,36.57
2023-01-15T04:08:23.257Z,36.56
2023-01-15T04:10:50.992Z,36.61
2023-01-15T04:13:18.886Z,36.41
2023-01-15T04:15:46.814Z,36.35
2023-01-15T04:18:14.591Z,36.94
2023-01-15T04:20:42.324Z,36.55
2023-01-15T04:23:10.064Z,36.62
2023-01-15T04:25:38.094Z,36.61
2023-01-15T04:28:06.029Z,36.34
2023-01-15T04:30:33.826Z,36.63
2023-01-15T04:33:01.596Z,36.24
2023-01-15T04:35:29.339Z,36.63
2023-01-15T04:37:57.096Z,36.39
2023-01-15T04:40:42.487Z,36.32
2023-01-15T04:43:27.612Z,36.56
2023-01-15T04:45:55.402Z,36.49
2023-01-15T04:48:23.155Z,36.60
2023-01-15T04:50:51.041Z,36.41
2023-01-15T04:53:18.799Z,36.24
2023-01-15T04:55:46.548Z,36.27
2023-01-15T04:58:14.290Z,36.18
2023-01-15T05:00:42.031Z,36.03
2023-01-15T05:03:09.777Z,36.35
2023-01-15T05:05:37.939Z,36.30
2023-01-15T05:08:05.647Z,35.95
2023-01-15T05:10:33.950Z,36.43
2023-01-15T05:13:02.131Z,36.42
2023-01-15T05:15:30.028Z,36.02
2023-01-15T05:17:57.786Z,35.90
2023-01-15T05:20:25.834Z,36.18
2023-01-15T05:22:53.541Z,36.42
2023-01-15T05:25:21.240Z,36.13
2023-01-15T05:27:48.922Z,36.75
2023-01-15T05:30:16.694Z,36.12
2023-01-15T05:32:44.909Z,36.54
2023-01-15T05:35:12.697Z,36.63
2023-01-15T05:37:40.422Z,36.57
2023-01-15T05:40:08.209Z,36.56
2023-01-15T05:42:35.962Z,36.69
2023-01-15T05:45:03.813Z,36.75
2023-01-15T05:47:31.569Z,36.81
2023-01-15T05:49:59.334Z,36.64
2023-01-15T05:52:27.082Z,36.03
2023-01-15T05:54:54.830Z,34.99
2023-01-15T05:57:22.597Z,35.12
2023-01-15T05:59:50.586Z,34.55
2023-01-15T06:02:18.391Z,33.90
2023-01-15T06:04:46.273Z,34.19
2023-01-15T06:07:14.038Z,33.96
2023-01-15T06:09:41.840Z,34.39
2023-01-15T06:12:09.764Z,34.06
2023-01-15T06:14:37.553Z,33.99
2023-01-15T06:17:05.274Z,34.11
2023-01-15T06:19:33.441Z,28.62
2023-01-15T06:22:01.164Z,21.49
2023-01-15T06:24:29.285Z,17.71
2023-01-15T06:26:56.986Z,15.33
2023-01-15T06:29:24.866Z,14.46
2023-01-15T06:31:52.591Z,13.52
2023-01-15T06:34:20.516Z,13.04
2023-01-15T06:36:48.324Z,12.40
2023-01-15T06:39:16.519Z,12.13
2023-01-15T06:42:01.602Z,11.94
2023-01-15T06:44:46.702Z,11.96
2023-01-15T06:47:24.625Z,12.23
2023-01-15T06:49:52.705Z,12.90
2023-01-15T06:52:20.448Z,13.28
2023-01-15T06:54:48.167Z,14.27
2023-01-15T06:57:15.901Z,15.26
2023-01-15T06:59:43.631Z,15.96
2023-01-15T07:02:11.532Z,16.69
2023-01-15T07:04:39.288Z,17.28
2023-01-15T07:07:19.097Z,18.11
2023-01-15T07:09:46.863Z,18.90
2023-01-15T07:12:14.724Z,20.08
2023-01-15T07:14:42.484Z,20.59
2023-01-15T07:17:10.558Z,20.92
2023-01-15T07:19:38.340Z,22.16
2023-01-15T07:22:06.188Z,22.78
2023-01-15T07:24:34.001Z,23.45
2023-01-15T07:27:01.785Z,23.96
2023-01-15T07:29:30.873Z,24.63
2023-01-15T07:31:59.466Z,25.56
2023-01-15T07:34:27.299Z,25.58
2023-01-15T07:36:55.034Z,26.02
2023-01-15T07:39:22.824Z,26.77
2023-01-15T07:42:07.937Z,27.29
2023-01-15T07:44:53.388Z,27.43
2023-01-15T07:47:38.483Z,28.39
2023-01-15T07:50:06.272Z,28.62
2023-01-15T07:52:34.009Z,29.13
2023-01-15T07:55:02.138Z,29.37
2023-01-15T07:57:29.913Z,29.49
2023-01-15T07:59:57.646Z,29.93
2023-01-15T08:02:25.657Z,30.37
2023-01-15T08:04:53.465Z,29.84
2023-01-15T08:07:21.216Z,29.45
2023-01-15T08:09:48.938Z,30.05
2023-01-15T08:12:34.401Z,29.85
2023-01-15T08:15:14.157Z,30.06
2023-01-15T08:17:41.915Z,30.52
2023-01-15T08:20:09.756Z,30.06
2023-01-15T08:22:38.598Z,29.31
2023-01-15T08:25:06.345Z,24.99
2023-01-15T08:27:34.299Z,20.20
2023-01-15T08:30:02.229Z,18.04
2023-01-15T08:32:30.026Z,16.43
2023-01-15T08:34:57.871Z,15.11
2023-01-15T08:37:25.582Z,14.79
2023-01-15T08:39:53.676Z,14.40
2023-01-15T08:42:21.401Z,15.03
2023-01-15T08:44:49.186Z,14.94
2023-01-15T08:47:16.947Z,15.92
2023-01-15T08:49:44.712Z,16.48
2023-01-15T08:52:15.178Z,17.14
2023-01-15T08:54:43.423Z,18.00
2023-01-15T08:57:12.611Z,18.53
2023-01-15T08:59:43.060Z,19.54
2023-01-15T09:02:10.896Z,20.15
2023-01-15T09:04:38.700Z,21.06
2023-01-15T09:07:06.505Z,21.83
2023-01-15T09:09:36.995Z,22.62
2023-01-15T09:12:04.725Z,23.33
2023-01-15T09:14:58.127Z,23.55
2023-01-15T09:17:20.263Z,24.29
2023-01-15T09:19:47.964Z,24.82
2023-01-15T09:22:15.882Z,25.64
2023-01-15T09:24:43.627Z,25.67
2023-01-15T09:27:13.440Z,26.42
2023-01-15T09:29:41.164Z,27.54
2023-01-15T09:32:10.473Z,27.69
2023-01-15T09:34:38.232Z,27.96
2023-01-15T09:37:08.249Z,28.63
2023-01-15T09:39:38.126Z,28.93
2023-01-15T09:42:09.385Z,29.17
2023-01-15T09:44:37.293Z,29.63
2023-01-15T09:47:08.071Z,29.69
2023-01-15T09:49:36.213Z,30.29
2023-01-15T09:52:06.375Z,30.54
2023-01-15T09:54:34.149Z,30.45
2023-01-15T09:57:02.054Z,30.72
2023-01-15T09:59:34.158Z,30.80
2023-01-15T10:02:02.567Z,31.16
2023-01-15T10:04:30.367Z,31.32
2023-01-15T10:06:58.723Z,31.03
2023-01-15T10:09:26.900Z,31.06
2023-01-15T10:12:12.325Z,31.11
2023-01-15T10:14:40.433Z,31.15
2023-01-15T10:17:08.147Z,31.54
2023-01-15T10:19:44.313Z,31.56
2023-01-15T10:22:12.443Z,31.85
2023-01-15T10:24:40.212Z,31.68
2023-01-15T10:27:07.992Z,32.00
2023-01-15T10:29:35.705Z,31.77
2023-01-15T10:32:03.441Z,31.95
2023-01-15T10:34:33.227Z,32.26
2023-01-15T10:37:00.920Z,32.92
2023-01-15T10:39:28.764Z,32.58
2023-01-15T10:41:56.543Z,32.75
2023-01-15T10:44:24.318Z,32.88
2023-01-15T10:46:54.395Z,33.44
2023-01-15T10:49:22.631Z,33.02
2023-01-15T10:51:52.695Z,33.44
2023-01-15T10:54:20.420Z,33.36
2023-01-15T10:56:48.152Z,33.74
2023-01-15T10:59:15.947Z,33.83
2023-01-15T11:01:43.876Z,33.57
2023-01-15T11:04:13.345Z,33.82
2023-01-15T11:06:41.104Z,33.91
2023-01-15T11:09:12.400Z,34.20
2023-01-15T11:12:15.717Z,33.57
2023-01-15T11:15:00.716Z,33.71
2023-01-15T11:17:45.785Z,34.15
2023-01-15T11:20:13.564Z,34.03
2023-01-15T11:22:42.698Z,34.15
2023-01-15T11:25:11.456Z,34.22
2023-01-15T11:27:39.245Z,34.01
2023-01-15T11:30:06.951Z,34.24
2023-01-15T11:32:34.740Z,34.08
2023-01-15T11:35:02.485Z,34.23
2023-01-15T11:37:30.315Z,34.25
2023-01-15T11:40:03.060Z,34.66
2023-01-15T11:42:48.468Z,33.84
2023-01-15T11:45:30.042Z,34.18
2023-01-15T11:48:15.184Z,33.83
2023-01-15T11:50:45.702Z,34.17
2023-01-15T11:53:14.853Z,34.28
2023-01-15T11:55:42.551Z,34.39
2023-01-15T11:58:10.401Z,34.26
2023-01-15T12:00:38.156Z,34.17
2023-01-15T12:03:05.914Z,34.42
2023-01-15T12:05:33.700Z,34.16
2023-01-15T12:08:02.315Z,34.43
2023-01-15T12:10:49.959Z,34.67
2023-01-15T12:13:17.784Z,34.21
2023-01-15T12:15:45.567Z,34.49
2023-01-15T12:18:13.551Z,34.21
2023-01-15T12:20:43.996Z,34.46
2023-01-15T12:23:11.707Z,34.43
2023-01-15T12:25:39.570Z,34.32
2023-01-15T12:28:08.864Z,34.55
2023-01-15T12:30:37.800Z,34.71
2023-01-15T12:33:05.772Z,34.95
2023-01-15T12:35:33.548Z,35.03
2023-01-15T12:38:01.287Z,34.61
2023-01-15T12:40:29.015Z,34.85
2023-01-15T12:43:14.462Z,34.78
2023-01-15T12:45:42.477Z,33.78
2023-01-15T12:48:10.194Z,25.61
2023-01-15T12:50:37.960Z,19.10
2023-01-15T12:53:05.709Z,16.15
2023-01-15T12:55:33.749Z,14.27
2023-01-15T12:58:01.501Z,12.95
2023-01-15T13:00:29.253Z,12.50
2023-01-15T13:02:57.005Z,11.88
2023-01-15T13:05:24.759Z,11.56
2023-01-15T13:07:52.521Z,11.27
2023-01-15T13:10:20.218Z,11.01
2023-01-15T13:12:47.950Z,11.07
2023-01-15T13:15:15.685Z,11.46
2023-01-15T13:17:44.646Z,11.97
2023-01-15T13:20:12.391Z,12.79
2023-01-15T13:22:40.157Z,13.38
2023-01-15T13:25:07.965Z,13.82
2023-01-15T13:27:35.692Z,15.15
2023-01-15T13:30:03.711Z,15.97
2023-01-15T13:32:31.454Z,16.68
2023-01-15T13:34:59.221Z,17.70
2023-01-15T13:37:27.026Z,18.10
2023-01-15T13:39:54.774Z,19.18
2023-01-15T13:42:39.213Z,19.86
2023-01-15T13:45:07.014Z,20.79
2023-01-15T13:47:34.863Z,21.33
2023-01-15T13:50:03.584Z,21.96
2023-01-15T13:52:31.353Z,23.01
2023-01-15T13:54:59.572Z,23.54
2023-01-15T13:57:27.321Z,23.83
2023-01-15T13:59:55.037Z,24.64
2023-01-15T14:02:22.875Z,25.40
2023-01-15T14:04:50.623Z,25.62
2023-01-15T14:07:18.381Z,26.06
2023-01-15T14:09:46.124Z,26.59
2023-01-15T14:12:13.993Z,25.33
2023-01-15T14:14:41.733Z,26.49
2023-01-15T14:17:09.474Z,27.42
2023-01-15T14:19:37.227Z,27.55
2023-01-15T14:22:05.163Z,28.13
2023-01-15T14:24:32.912Z,28.74
2023-01-15T14:27:00.716Z,28.96
2023-01-15T14:29:30.551Z,29.03
2023-01-15T14:31:58.317Z,28.97
2023-01-15T14:34:27.141Z,28.98
2023-01-15T14:36:56.345Z,29.50
2023-01-15T14:39:24.094Z,28.72
2023-01-15T14:42:05.730Z,26.82
2023-01-15T14:44:33.599Z,24.52
2023-01-15T14:47:01.322Z,22.95
2023-01-15T14:49:29.294Z,20.78
2023-01-15T14:51:57.192Z,19.13
2023-01-15T14:54:25.107Z,18.32
2023-01-15T14:56:52.817Z,18.17
2023-01-15T14:59:20.525Z,18.55
2023-01-15T15:01:48.772Z,18.64
2023-01-15T15:04:16.552Z,19.48
2023-01-15T15:06:44.352Z,20.29
2023-01-15T15:09:13.656Z,20.81
2023-01-15T15:11:59.051Z,21.86
2023-01-15T15:14:26.843Z,22.79
2023-01-15T15:16:54.871Z,23.14
2023-01-15T15:19:25.223Z,24.09
2023-01-15T15:21:52.992Z,24.83
2023-01-15T15:24:20.740Z,25.22
2023-01-15T15:26:48.470Z,25.80
2023-01-15T15:29:16.225Z,26.40
2023-01-15T15:31:43.979Z,26.90
2023-01-15T15:34:11.687Z,27.52
2023-01-15T15:36:39.807Z,27.77
2023-01-15T15:39:07.554Z,28.55
2023-01-15T15:41:52.909Z,28.69
2023-01-15T15:44:38.056Z,29.29
2023-01-15T15:47:23.158Z,29.30
2023-01-15T15:49:50.956Z,29.74
2023-01-15T15:52:18.723Z,30.36
2023-01-15T15:54:46.570Z,30.51
2023-01-15T15:57:14.318Z,30.13
2023-01-15T15:59:42.126Z,29.45
2023-01-15T16:02:10.063Z,29.35
2023-01-15T16:04:37.888Z,29.40
2023-01-15T16:07:05.596Z,29.55
2023-01-15T16:09:33.416Z,30.07
2023-01-15T16:12:07.347Z,29.99
2023-01-15T16:14:35.229Z,30.41
2023-01-15T16:17:03.146Z,30.41
2023-01-15T16:19:31.035Z,31.20
2023-01-15T16:21:58.930Z,30.59
2023-01-15T16:24:26.762Z,30.18
2023-01-15T16:26:54.535Z,30.33
2023-01-15T16:29:23.333Z,30.73
2023-01-15T16:31:51.074Z,30.22
2023-01-15T16:34:18.930Z,30.45
2023-01-15T16:36:47.156Z,31.09
2023-01-15T16:39:14.935Z,31.00
2023-01-15T16:41:43.341Z,31.07
2023-01-15T16:44:11.132Z,31.84
2023-01-15T16:46:39.022Z,31.66
2023-01-15T16:49:07.393Z,29.66
2023-01-15T16:51:35.240Z,25.72
2023-01-15T16:54:03.677Z,22.48
2023-01-15T16:56:31.424Z,20.46
2023-01-15T16:58:59.172Z,18.41
2023-01-15T17:01:27.006Z,17.11
2023-01-15T17:03:54.787Z,16.19
2023-01-15T17:06:22.542Z,15.83
2023-01-15T17:08:50.245Z,15.43
2023-01-15T17:11:17.982Z,16.12
2023-01-15T17:13:45.849Z,16.59
2023-01-15T17:16:13.681Z,17.32
2023-01-15T17:18:41.667Z,17.82
2023-01-15T17:21:09.502Z,18.60
2023-01-15T17:23:37.329Z,19.79
2023-01-15T17:26:05.048Z,19.99
2023-01-15T17:28:32.791Z,20.84
2023-01-15T17:31:00.571Z,21.44
2023-01-15T17:33:28.394Z,22.29
2023-01-15T17:35:58.392Z,23.40
2023-01-15T17:38:26.094Z,23.74
2023-01-15T17:40:57.604Z,24.29
2023-01-15T17:43:26.462Z,25.05
2023-01-15T17:45:54.237Z,25.76
2023-01-15T17:48:21.964Z,25.95
2023-01-15T17:50:49.734Z,26.36
2023-01-15T17:53:17.977Z,27.24
2023-01-15T17:56:03.464Z,27.38
2023-01-15T17:58:48.626Z,27.97
2023-01-15T18:01:34.055Z,28.57
2023-01-15T18:04:19.389Z,29.08
2023-01-15T18:06:47.185Z,28.86
2023-01-15T18:09:14.918Z,29.47
2023-01-15T18:11:42.858Z,29.61
2023-01-15T18:14:10.610Z,29.73
2023-01-15T18:16:39.102Z,30.46
2023-01-15T18:19:06.843Z,30.13
2023-01-15T18:21:34.589Z,30.88
2023-01-15T18:24:02.665Z,30.89
2023-01-15T18:26:30.390Z,31.42
2023-01-15T18:28:58.121Z,31.09
2023-01-15T18:31:25.956Z,31.31
2023-01-15T18:33:53.690Z,31.49
2023-01-15T18:36:21.589Z,30.96
2023-01-15T18:38:49.357Z,31.48
2023-01-15T18:41:49.731Z,31.22
2023-01-15T18:44:35.040Z,31.13
2023-01-15T18:47:02.862Z,31.56
2023-01-15T18:49:30.618Z,31.44
2023-01-15T18:52:16.049Z,31.75
2023-01-15T18:54:43.831Z,31.73
2023-01-15T18:57:11.701Z,31.68
2023-01-15T18:59:39.494Z,31.16
2023-01-15T19:02:09.776Z,27.82
2023-01-15T19:04:38.308Z,24.12
2023-01-15T19:07:06.110Z,20.94
2023-01-15T19:09:34.198Z,18.38
2023-01-15T19:12:03.992Z,16.82
2023-01-15T19:14:49.379Z,16.38
2023-01-15T19:17:34.535Z,15.85
2023-01-15T19:20:02.281Z,15.65
2023-01-15T19:22:47.630Z,16.32
2023-01-15T19:25:15.357Z,16.62
2023-01-15T19:27:43.217Z,17.42
2023-01-15T19:30:10.943Z,17.78
2023-01-15T19:32:38.660Z,18.71
2023-01-15T19:35:06.417Z,19.46
2023-01-15T19:37:37.221Z,19.57
2023-01-15T19:40:05.206Z,20.53
2023-01-15T19:42:50.596Z,21.06
2023-01-15T19:45:36.080Z,22.40
2023-01-15T19:48:21.087Z,23.03
2023-01-15T19:50:48.827Z,23.90
2023-01-15T19:53:16.685Z,24.50
2023-01-15T19:55:44.573Z,24.97
2023-01-15T19:58:12.294Z,25.32
2023-01-15T20:00:40.229Z,25.82
2023-01-15T20:03:09.911Z,26.39
2023-01-15T20:05:37.751Z,26.90
2023-01-15T20:08:05.675Z,27.35
2023-01-15T20:10:34.396Z,27.52
2023-01-15T20:13:19.546Z,28.32
2023-01-15T20:15:47.288Z,28.26
2023-01-15T20:18:15.177Z,28.88
2023-01-15T20:20:42.928Z,29.59
2023-01-15T20:23:10.667Z,29.52
2023-01-15T20:25:42.705Z,30.18
2023-01-15T20:28:10.506Z,30.40
2023-01-15T20:30:38.395Z,30.30
2023-01-15T20:33:06.120Z,30.97
2023-01-15T20:35:33.944Z,30.90
2023-01-15T20:38:01.720Z,30.83
2023-01-15T20:40:32.564Z,31.02
2023-01-15T20:43:17.849Z,30.76
2023-01-15T20:45:46.041Z,31.02
2023-01-15T20:48:31.105Z,30.55
2023-01-15T20:51:01.741Z,30.89
2023-01-15T20:53:29.743Z,30.71
2023-01-15T20:55:57.891Z,31.48
2023-01-15T20:58:25.871Z,31.45
2023-01-15T21:00:53.820Z,31.48
2023-01-15T21:03:21.593Z,31.87
2023-01-15T21:05:49.387Z,31.95
2023-01-15T21:08:17.091Z,31.83
2023-01-15T21:10:44.856Z,31.86
2023-01-15T21:13:13.036Z,32.34
2023-01-15T21:15:42.390Z,32.21
2023-01-15T21:18:11.727Z,32.15
2023-01-15T21:20:39.473Z,32.73
2023-01-15T21:23:07.347Z,32.43
2023-01-15T21:25:35.075Z,32.60
2023-01-15T21:28:02.877Z,32.76
2023-01-15T21:30:30.770Z,32.86
2023-01-15T21:32:58.475Z,33.18
2023-01-15T21:35:26.185Z,33.44
2023-01-15T21:37:53.923Z,33.55
2023-01-15T21:40:21.703Z,33.07
2023-01-15T21:43:07.308Z,33.72
2023-01-15T21:45:35.084Z,33.76
2023-01-15T21:48:02.971Z,33.57
2023-01-15T21:50:30.850Z,33.76
2023-01-15T21:52:58.572Z,33.92
2023-01-15T21:55:26.375Z,34.06
2023-01-15T21:57:54.126Z,33.71
2023-01-15T22:00:21.972Z,33.95
2023-01-15T22:02:50.201Z,33.52
2023-01-15T22:05:17.989Z,33.72
2023-01-15T22:07:45.746Z,33.60
2023-01-15T22:10:13.476Z,34.27
2023-01-15T22:12:43.178Z,34.32
2023-01-15T22:15:10.979Z,34.01
2023-01-15T22:17:38.768Z,34.23
2023-01-15T22:20:07.325Z,34.29
2023-01-15T22:22:36.792Z,34.18
2023-01-15T22:25:07.599Z,33.97
2023-01-15T22:27:40.687Z,33.78
2023-01-15T22:30:08.475Z,33.83
2023-01-15T22:32:36.275Z,33.62
2023-01-15T22:35:04.194Z,33.85
2023-01-15T22:37:31.970Z,33.59
2023-01-15T22:39:59.832Z,33.96
2023-01-15T22:42:28.510Z,33.68
2023-01-15T22:44:57.225Z,33.78
2023-01-15T22:49:52.945Z,33.98
2023-01-15T22:52:21.266Z,33.88
2023-01-15T22:54:49.002Z,33.72
2023-01-15T22:57:17.301Z,33.79
2023-01-15T22:59:45.341Z,33.99
2023-01-15T23:02:13.277Z,33.91
2023-01-15T23:04:41.085Z,34.02
2023-01-15T23:07:08.858Z,34.32
2023-01-15T23:09:36.600Z,34.43
2023-01-15T23:12:04.349Z,34.30
2023-01-15T23:14:32.128Z,34.39
2023-01-15T23:17:00.014Z,34.23
2023-01-15T23:19:28.276Z,34.02
2023-01-15T23:21:56.353Z,34.48
2023-01-15T23:24:24.143Z,34.03
2023-01-15T23:26:52.113Z,34.29
2023-01-15T23:29:19.995Z,34.44
2023-01-15T23:31:47.908Z,34.29
2023-01-15T23:34:15.665Z,34.43
2023-01-15T23:36:43.418Z,34.21
2023-01-15T23:39:11.107Z,34.18
2023-01-15T23:41:56.161Z,34.25
2023-01-15T23:44:41.344Z,34.61
2023-01-15T23:47:09.097Z,34.72
2023-01-15T23:49:36.815Z,34.33
2023-01-15T23:52:04.610Z,34.75
2023-01-15T23:54:32.339Z,34.69
2023-01-15T23:57:00.227Z,34.50
2023-01-15T23:59:27.927Z,34.47
